Riverdance — C6CG3 — position and weather

sailwx.info

Track history (hours):
 
Tides and Currents Weather Stations Pressure Air Temp Water Temp Dewpoint Dewpoint Depression Visibility Wind Speed Wind Dir Waves Ship Positions

Riverdance

Operator: Crescent Marine Services Ltd

Last reported at 2019-May-18 08:27 UTC. Time now 2019-Jun-16 14:44 UTC.
Position N 60°44' W 002°23'.
Warning: this ship's position is 29 days out of date.

Length 72 m; draft 5.8 m.

Type: Other ship. MMSI: 311000463.

Date/timePositionNaut miles runAvg speedWind from/ knotsBaromVisibWave heightAir tempDewpointWater temp
2019-May-18 08:27N 60°44' W 002°23'2 2.9
2019-May-18 07:49N 60°42' W 002°24'1 3.0
2019-May-18 07:27N 60°41' W 002°25'1 2.6
2019-May-18 06:54N 60°40' W 002°25'1 1.3
2019-May-18 05:51N 60°40' W 002°28'1 2.8
2019-May-18 05:30N 60°40' W 002°30'2 2.9
2019-May-18 04:48N 60°39' W 002°34'0 0.0
2019-May-18 03:15N 60°39' W 002°34'1 2.8
2019-May-18 03:00N 60°39' W 002°35'1 2.5
2019-May-18 02:29N 60°39' W 002°38'2 3.5
2019-May-18 01:59N 60°39' W 002°34'0 0.9
2019-May-18 01:30N 60°39' W 002°35'1 2.8
2019-May-18 00:59N 60°39' W 002°38'1 3.0
2019-May-18 00:30N 60°39' W 002°35'0 0.8
2019-May-18 00:00N 60°39' W 002°34'2 3.2
2019-May-17 23:29N 60°39' W 002°37'2 2.1
2019-May-17 22:31N 60°39' W 002°33'0 4.0
2019-May-17 22:30N 60°39' W 002°34'2 3.4
2019-May-17 22:00N 60°39' W 002°37'1 1.7
2019-May-17 21:17N 60°39' W 002°35'1 2.8
2019-May-17 21:00N 60°39' W 002°33'1 2.8
2019-May-17 20:30N 60°39' W 002°36'0 0.7
2019-May-17 19:58N 60°39' W 002°36'1 2.6
2019-May-17 19:30N 60°39' W 002°34'1 1.1
2019-May-17 19:00N 60°39' W 002°34'2 3.7
2019-May-17 18:29N 60°39' W 002°37'1 1.7
2019-May-17 18:00N 60°39' W 002°36'2 2.9
2019-May-17 17:27N 60°40' W 002°33'1 2.6
2019-May-17 17:00N 60°39' W 002°35'1 2.8
2019-May-17 16:30N 60°39' W 002°38'2 3.1
2019-May-17 15:59N 60°39' W 002°35'0 0.6
2019-May-17 15:30N 60°39' W 002°35'1 2.8
2019-May-17 15:00N 60°39' W 002°37'1 2.5
2019-May-17 14:29N 60°39' W 002°35'0 0.6
2019-May-17 13:57N 60°39' W 002°35'1 2.7
2019-May-17 13:30N 60°39' W 002°37'1 1.5
2019-May-17 12:59N 60°39' W 002°36'1 2.3
2019-May-17 12:30N 60°39' W 002°34'2 2.9
2019-May-17 11:59N 60°39' W 002°37'0 0.9
2019-May-17 11:30N 60°39' W 002°36'2 3.1
2019-May-17 11:00N 60°39' W 002°33'1 3.0
2019-May-17 10:30N 60°39' W 002°36'1 1.2
2019-May-17 09:57N 60°39' W 002°37'2 2.9
2019-May-17 09:22N 60°39' W 002°34'1 3.1
2019-May-17 09:00N 60°38' W 002°33'  
2019-May-14 05:53N 60°39' W 000°42'1 2.7
2019-May-14 05:29N 60°38' W 000°42'1 2.6
2019-May-14 05:00N 60°37' W 000°42'1 1.9
2019-May-14 04:30N 60°37' W 000°41'2 3.9
2019-May-14 03:58N 60°40' W 000°42'2 3.5
2019-May-14 03:30N 60°41' W 000°42'4 2.9
2019-May-14 02:05N 60°45' W 000°42'2 1.7
2019-May-14 00:51N 60°47' W 000°44'9 3.6
2019-May-13 22:17N 60°38' W 000°43'1 3.3
2019-May-13 22:00N 60°37' W 000°43'3 2.5
2019-May-13 20:37N 60°40' W 000°47'0 2.5
2019-May-13 20:30N 60°40' W 000°47'  
Track history (hours):
 
Tides and Currents Weather Stations Pressure Air Temp Water Temp Dewpoint Dewpoint Depression Visibility Wind Speed Wind Dir Waves Ship Positions

Riverdance

Operator: Crescent Marine Services Ltd

Last reported at 2019-May-18 08:27 UTC. Time now 2019-Jun-16 14:44 UTC.
Position N 60°44' W 002°23'.
Warning: this ship's position is 29 days out of date.

Length 72 m; draft 5.8 m.

Type: Other ship. MMSI: 311000463.

Date/timePositionNaut miles runAvg speedWind from/ knotsBaromVisibWave heightAir tempDewpointWater temp
2019-May-18 08:27N 60°44' W 002°23'2 2.9
2019-May-18 07:49N 60°42' W 002°24'1 3.0
2019-May-18 07:27N 60°41' W 002°25'1 2.6
2019-May-18 06:54N 60°40' W 002°25'1 1.3
2019-May-18 05:51N 60°40' W 002°28'1 2.8
2019-May-18 05:30N 60°40' W 002°30'2 2.9
2019-May-18 04:48N 60°39' W 002°34'0 0.0
2019-May-18 03:15N 60°39' W 002°34'1 2.8
2019-May-18 03:00N 60°39' W 002°35'1 2.5
2019-May-18 02:29N 60°39' W 002°38'2 3.5
2019-May-18 01:59N 60°39' W 002°34'0 0.9
2019-May-18 01:30N 60°39' W 002°35'1 2.8
2019-May-18 00:59N 60°39' W 002°38'1 3.0
2019-May-18 00:30N 60°39' W 002°35'0 0.8
2019-May-18 00:00N 60°39' W 002°34'2 3.2
2019-May-17 23:29N 60°39' W 002°37'2 2.1
2019-May-17 22:31N 60°39' W 002°33'0 4.0
2019-May-17 22:30N 60°39' W 002°34'2 3.4
2019-May-17 22:00N 60°39' W 002°37'1 1.7
2019-May-17 21:17N 60°39' W 002°35'1 2.8
2019-May-17 21:00N 60°39' W 002°33'1 2.8
2019-May-17 20:30N 60°39' W 002°36'0 0.7
2019-May-17 19:58N 60°39' W 002°36'1 2.6
2019-May-17 19:30N 60°39' W 002°34'1 1.1
2019-May-17 19:00N 60°39' W 002°34'2 3.7
2019-May-17 18:29N 60°39' W 002°37'1 1.7
2019-May-17 18:00N 60°39' W 002°36'2 2.9
2019-May-17 17:27N 60°40' W 002°33'1 2.6
2019-May-17 17:00N 60°39' W 002°35'1 2.8
2019-May-17 16:30N 60°39' W 002°38'2 3.1
2019-May-17 15:59N 60°39' W 002°35'0 0.6
2019-May-17 15:30N 60°39' W 002°35'1 2.8
2019-May-17 15:00N 60°39' W 002°37'1 2.5
2019-May-17 14:29N 60°39' W 002°35'0 0.6
2019-May-17 13:57N 60°39' W 002°35'1 2.7
2019-May-17 13:30N 60°39' W 002°37'1 1.5
2019-May-17 12:59N 60°39' W 002°36'1 2.3
2019-May-17 12:30N 60°39' W 002°34'2 2.9
2019-May-17 11:59N 60°39' W 002°37'0 0.9
2019-May-17 11:30N 60°39' W 002°36'2 3.1
2019-May-17 11:00N 60°39' W 002°33'1 3.0
2019-May-17 10:30N 60°39' W 002°36'1 1.2
2019-May-17 09:57N 60°39' W 002°37'2 2.9
2019-May-17 09:22N 60°39' W 002°34'1 3.1
2019-May-17 09:00N 60°38' W 002°33'  
2019-May-14 05:53N 60°39' W 000°42'1 2.7
2019-May-14 05:29N 60°38' W 000°42'1 2.6
2019-May-14 05:00N 60°37' W 000°42'1 1.9
2019-May-14 04:30N 60°37' W 000°41'2 3.9
2019-May-14 03:58N 60°40' W 000°42'2 3.5
2019-May-14 03:30N 60°41' W 000°42'4 2.9
2019-May-14 02:05N 60°45' W 000°42'2 1.7
2019-May-14 00:51N 60°47' W 000°44'9 3.6
2019-May-13 22:17N 60°38' W 000°43'1 3.3
2019-May-13 22:00N 60°37' W 000°43'3 2.5
2019-May-13 20:37N 60°40' W 000°47'0 2.5
2019-May-13 20:30N 60°40' W 000°47'  

Dump ship's entire track history